sensor_id;sensor_type;location;lat;lon;timestamp;P1;durP1;ratioP1;P2;durP2;ratioP2
42194;SDS011;27863;49.440;11.102;2023-04-09T00:01:45;5.40;;;5.00;;
42194;SDS011;27863;49.440;11.102;2023-04-09T00:04:47;6.27;;;5.67;;
42194;SDS011;27863;49.440;11.102;2023-04-09T00:07:48;7.07;;;6.40;;
42194;SDS011;27863;49.440;11.102;2023-04-09T00:10:49;6.03;;;5.53;;
42194;SDS011;27863;49.440;11.102;2023-04-09T00:13:52;7.23;;;6.30;;
42194;SDS011;27863;49.440;11.102;2023-04-09T00:16:54;8.17;;;7.37;;
42194;SDS011;27863;49.440;11.102;2023-04-09T00:19:55;7.90;;;7.20;;
42194;SDS011;27863;49.440;11.102;2023-04-09T00:22:55;8.00;;;7.30;;
42194;SDS011;27863;49.440;11.102;2023-04-09T00:25:57;7.67;;;6.87;;
42194;SDS011;27863;49.440;11.102;2023-04-09T00:28:59;7.50;;;6.83;;
42194;SDS011;27863;49.440;11.102;2023-04-09T00:32:01;7.47;;;6.87;;
42194;SDS011;27863;49.440;11.102;2023-04-09T00:35:02;6.93;;;6.33;;
42194;SDS011;27863;49.440;11.102;2023-04-09T00:38:02;7.43;;;6.73;;
42194;SDS011;27863;49.440;11.102;2023-04-09T00:41:08;6.93;;;6.33;;
42194;SDS011;27863;49.440;11.102;2023-04-09T00:44:09;7.67;;;6.97;;
42194;SDS011;27863;49.440;11.102;2023-04-09T00:47:09;9.27;;;6.20;;
42194;SDS011;27863;49.440;11.102;2023-04-09T00:50:11;7.13;;;6.53;;
42194;SDS011;27863;49.440;11.102;2023-04-09T00:53:11;7.37;;;6.73;;
42194;SDS011;27863;49.440;11.102;2023-04-09T00:56:14;7.00;;;6.33;;
42194;SDS011;27863;49.440;11.102;2023-04-09T00:59:15;6.50;;;5.93;;
42194;SDS011;27863;49.440;11.102;2023-04-09T01:02:16;7.10;;;6.40;;
42194;SDS011;27863;49.440;11.102;2023-04-09T01:05:16;7.10;;;6.47;;
42194;SDS011;27863;49.440;11.102;2023-04-09T01:15:10;7.57;;;6.87;;
42194;SDS011;27863;49.440;11.102;2023-04-09T01:21:37;7.70;;;7.00;;
42194;SDS011;27863;49.440;11.102;2023-04-09T01:24:46;7.87;;;6.43;;
42194;SDS011;27863;49.440;11.102;2023-04-09T01:31:19;7.17;;;6.57;;
42194;SDS011;27863;49.440;11.102;2023-04-09T01:34:20;6.90;;;6.30;;
42194;SDS011;27863;49.440;11.102;2023-04-09T01:37:21;7.27;;;6.67;;
42194;SDS011;27863;49.440;11.102;2023-04-09T01:40:23;7.33;;;6.67;;
42194;SDS011;27863;49.440;11.102;2023-04-09T01:43:24;7.27;;;6.57;;
42194;SDS011;27863;49.440;11.102;2023-04-09T01:46:25;8.27;;;6.37;;
42194;SDS011;27863;49.440;11.102;2023-04-09T01:49:26;7.63;;;6.93;;
42194;SDS011;27863;49.440;11.102;2023-04-09T01:52:28;7.07;;;6.43;;
42194;SDS011;27863;49.440;11.102;2023-04-09T01:55:28;7.37;;;6.77;;
42194;SDS011;27863;49.440;11.102;2023-04-09T01:58:29;7.57;;;6.93;;
42194;SDS011;27863;49.440;11.102;2023-04-09T02:01:56;7.03;;;6.40;;
42194;SDS011;27863;49.440;11.102;2023-04-09T02:04:59;7.43;;;6.70;;
42194;SDS011;27863;49.440;11.102;2023-04-09T02:08:04;7.57;;;6.87;;
42194;SDS011;27863;49.440;11.102;2023-04-09T02:11:08;6.63;;;6.07;;
42194;SDS011;27863;49.440;11.102;2023-04-09T02:14:09;6.93;;;6.33;;
42194;SDS011;27863;49.440;11.102;2023-04-09T02:17:11;6.67;;;6.13;;
42194;SDS011;27863;49.440;11.102;2023-04-09T02:20:16;7.13;;;6.53;;
42194;SDS011;27863;49.440;11.102;2023-04-09T02:23:17;7.47;;;6.83;;
42194;SDS011;27863;49.440;11.102;2023-04-09T02:26:18;8.40;;;7.60;;
42194;SDS011;27863;49.440;11.102;2023-04-09T02:29:19;7.23;;;6.53;;
42194;SDS011;27863;49.440;11.102;2023-04-09T02:32:19;7.23;;;6.53;;
42194;SDS011;27863;49.440;11.102;2023-04-09T02:35:20;7.80;;;7.10;;
42194;SDS011;27863;49.440;11.102;2023-04-09T02:38:20;7.93;;;7.17;;
42194;SDS011;27863;49.440;11.102;2023-04-09T02:41:21;7.87;;;7.07;;
42194;SDS011;27863;49.440;11.102;2023-04-09T02:44:21;8.00;;;7.23;;
42194;SDS011;27863;49.440;11.102;2023-04-09T02:47:22;8.13;;;7.37;;
42194;SDS011;27863;49.440;11.102;2023-04-09T02:50:22;7.80;;;7.10;;
42194;SDS011;27863;49.440;11.102;2023-04-09T02:53:26;8.30;;;7.60;;
42194;SDS011;27863;49.440;11.102;2023-04-09T02:56:27;7.57;;;6.93;;
42194;SDS011;27863;49.440;11.102;2023-04-09T02:59:29;7.93;;;7.20;;
42194;SDS011;27863;49.440;11.102;2023-04-09T03:02:32;7.87;;;7.17;;
42194;SDS011;27863;49.440;11.102;2023-04-09T03:05:32;8.97;;;8.13;;
42194;SDS011;27863;49.440;11.102;2023-04-09T03:08:33;6.87;;;6.27;;
42194;SDS011;27863;49.440;11.102;2023-04-09T03:11:36;9.60;;;8.67;;
42194;SDS011;27863;49.440;11.102;2023-04-09T03:14:37;8.73;;;7.93;;
42194;SDS011;27863;49.440;11.102;2023-04-09T03:17:37;8.30;;;7.50;;
42194;SDS011;27863;49.440;11.102;2023-04-09T03:20:38;8.27;;;7.37;;
42194;SDS011;27863;49.440;11.102;2023-04-09T03:23:41;7.73;;;7.07;;
42194;SDS011;27863;49.440;11.102;2023-04-09T03:26:41;7.73;;;7.03;;
42194;SDS011;27863;49.440;11.102;2023-04-09T03:29:43;8.13;;;7.43;;
42194;SDS011;27863;49.440;11.102;2023-04-09T03:32:43;8.53;;;7.70;;
42194;SDS011;27863;49.440;11.102;2023-04-09T03:35:47;7.93;;;7.23;;
42194;SDS011;27863;49.440;11.102;2023-04-09T03:38:49;9.27;;;8.43;;
42194;SDS011;27863;49.440;11.102;2023-04-09T03:41:59;8.00;;;7.30;;
42194;SDS011;27863;49.440;11.102;2023-04-09T03:45:05;8.93;;;8.13;;
42194;SDS011;27863;49.440;11.102;2023-04-09T03:48:12;9.47;;;8.60;;
42194;SDS011;27863;49.440;11.102;2023-04-09T03:51:16;8.97;;;8.17;;
42194;SDS011;27863;49.440;11.102;2023-04-09T03:54:23;9.83;;;8.70;;
42194;SDS011;27863;49.440;11.102;2023-04-09T03:57:28;8.80;;;7.93;;
42194;SDS011;27863;49.440;11.102;2023-04-09T04:00:30;9.73;;;8.00;;
42194;SDS011;27863;49.440;11.102;2023-04-09T04:04:01;8.80;;;7.90;;
42194;SDS011;27863;49.440;11.102;2023-04-09T04:07:23;8.73;;;7.93;;
42194;SDS011;27863;49.440;11.102;2023-04-09T04:10:29;8.93;;;8.13;;
42194;SDS011;27863;49.440;11.102;2023-04-09T04:13:30;8.73;;;7.93;;
42194;SDS011;27863;49.440;11.102;2023-04-09T04:16:31;8.27;;;7.57;;
42194;SDS011;27863;49.440;11.102;2023-04-09T04:19:33;8.43;;;7.63;;
42194;SDS011;27863;49.440;11.102;2023-04-09T04:22:33;9.57;;;8.67;;
42194;SDS011;27863;49.440;11.102;2023-04-09T04:25:35;7.93;;;7.13;;
42194;SDS011;27863;49.440;11.102;2023-04-09T04:28:37;8.00;;;7.30;;
42194;SDS011;27863;49.440;11.102;2023-04-09T04:31:42;9.10;;;8.27;;
42194;SDS011;27863;49.440;11.102;2023-04-09T04:34:47;9.00;;;8.10;;
42194;SDS011;27863;49.440;11.102;2023-04-09T04:37:55;8.80;;;8.00;;
42194;SDS011;27863;49.440;11.102;2023-04-09T04:40:57;8.07;;;7.37;;
42194;SDS011;27863;49.440;11.102;2023-04-09T04:43:58;8.87;;;7.97;;
42194;SDS011;27863;49.440;11.102;2023-04-09T04:47:00;8.00;;;7.20;;
42194;SDS011;27863;49.440;11.102;2023-04-09T04:50:00;7.97;;;7.27;;
42194;SDS011;27863;49.440;11.102;2023-04-09T04:53:01;8.37;;;7.67;;
42194;SDS011;27863;49.440;11.102;2023-04-09T04:56:11;7.83;;;7.13;;
42194;SDS011;27863;49.440;11.102;2023-04-09T04:59:15;8.00;;;7.20;;
42194;SDS011;27863;49.440;11.102;2023-04-09T05:02:29;9.53;;;7.77;;
42194;SDS011;27863;49.440;11.102;2023-04-09T05:05:48;7.83;;;7.10;;
42194;SDS011;27863;49.440;11.102;2023-04-09T05:08:49;7.47;;;6.87;;
42194;SDS011;27863;49.440;11.102;2023-04-09T05:11:50;7.00;;;6.30;;
42194;SDS011;27863;49.440;11.102;2023-04-09T05:14:53;7.07;;;6.23;;
42194;SDS011;27863;49.440;11.102;2023-04-09T05:17:55;6.93;;;6.23;;
42194;SDS011;27863;49.440;11.102;2023-04-09T05:20:56;6.57;;;6.07;;
42194;SDS011;27863;49.440;11.102;2023-04-09T05:23:59;6.77;;;6.13;;
42194;SDS011;27863;49.440;11.102;2023-04-09T05:27:04;7.10;;;6.40;;
42194;SDS011;27863;49.440;11.102;2023-04-09T05:30:05;6.47;;;5.90;;
42194;SDS011;27863;49.440;11.102;2023-04-09T05:33:07;6.70;;;6.00;;
42194;SDS011;27863;49.440;11.102;2023-04-09T05:36:13;6.60;;;6.00;;
42194;SDS011;27863;49.440;11.102;2023-04-09T05:39:17;6.03;;;5.47;;
42194;SDS011;27863;49.440;11.102;2023-04-09T05:42:18;6.40;;;5.90;;
42194;SDS011;27863;49.440;11.102;2023-04-09T05:45:45;6.23;;;5.73;;
42194;SDS011;27863;49.440;11.102;2023-04-09T05:48:48;6.47;;;5.87;;
42194;SDS011;27863;49.440;11.102;2023-04-09T05:51:49;6.50;;;5.90;;
42194;SDS011;27863;49.440;11.102;2023-04-09T05:54:55;6.20;;;5.70;;
42194;SDS011;27863;49.440;11.102;2023-04-09T05:58:03;5.80;;;5.37;;
42194;SDS011;27863;49.440;11.102;2023-04-09T06:01:04;7.73;;;7.17;;
42194;SDS011;27863;49.440;11.102;2023-04-09T06:04:04;7.30;;;6.67;;
42194;SDS011;27863;49.440;11.102;2023-04-09T06:07:05;6.63;;;6.13;;
42194;SDS011;27863;49.440;11.102;2023-04-09T06:10:05;7.60;;;7.00;;
42194;SDS011;27863;49.440;11.102;2023-04-09T06:13:10;7.37;;;6.77;;
42194;SDS011;27863;49.440;11.102;2023-04-09T06:16:10;7.67;;;7.07;;
42194;SDS011;27863;49.440;11.102;2023-04-09T06:19:11;6.70;;;6.10;;
42194;SDS011;27863;49.440;11.102;2023-04-09T06:22:11;7.63;;;6.93;;
42194;SDS011;27863;49.440;11.102;2023-04-09T06:25:12;7.45;;;6.78;;
42194;SDS011;27863;49.440;11.102;2023-04-09T06:28:12;7.05;;;6.45;;
42194;SDS011;27863;49.440;11.102;2023-04-09T06:31:13;8.40;;;7.72;;
42194;SDS011;27863;49.440;11.102;2023-04-09T06:34:14;7.90;;;7.20;;
42194;SDS011;27863;49.440;11.102;2023-04-09T06:37:15;7.60;;;7.00;;
42194;SDS011;27863;49.440;11.102;2023-04-09T06:40:15;8.23;;;7.63;;
42194;SDS011;27863;49.440;11.102;2023-04-09T06:43:16;8.43;;;7.82;;
42194;SDS011;27863;49.440;11.102;2023-04-09T06:46:22;8.60;;;7.80;;
42194;SDS011;27863;49.440;11.102;2023-04-09T06:49:22;7.65;;;7.05;;
42194;SDS011;27863;49.440;11.102;2023-04-09T06:52:35;9.57;;;8.77;;
42194;SDS011;27863;49.440;11.102;2023-04-09T06:55:36;10.27;;;9.32;;
42194;SDS011;27863;49.440;11.102;2023-04-09T06:58:36;10.02;;;9.13;;
42194;SDS011;27863;49.440;11.102;2023-04-09T07:01:37;11.35;;;10.20;;
42194;SDS011;27863;49.440;11.102;2023-04-09T07:04:38;10.35;;;9.52;;
42194;SDS011;27863;49.440;11.102;2023-04-09T07:07:38;9.55;;;8.85;;
42194;SDS011;27863;49.440;11.102;2023-04-09T07:10:39;9.48;;;8.77;;
42194;SDS011;27863;49.440;11.102;2023-04-09T07:13:39;10.55;;;9.82;;
42194;SDS011;27863;49.440;11.102;2023-04-09T07:16:40;10.57;;;9.70;;
42194;SDS011;27863;49.440;11.102;2023-04-09T07:19:41;10.90;;;10.00;;
42194;SDS011;27863;49.440;11.102;2023-04-09T07:22:42;10.75;;;10.02;;
42194;SDS011;27863;49.440;11.102;2023-04-09T07:25:43;11.20;;;10.30;;
42194;SDS011;27863;49.440;11.102;2023-04-09T07:28:44;11.10;;;10.30;;
42194;SDS011;27863;49.440;11.102;2023-04-09T07:31:44;11.15;;;10.32;;
42194;SDS011;27863;49.440;11.102;2023-04-09T07:34:46;10.75;;;10.05;;
42194;SDS011;27863;49.440;11.102;2023-04-09T07:37:46;10.95;;;10.15;;
42194;SDS011;27863;49.440;11.102;2023-04-09T07:40:47;10.68;;;9.77;;
42194;SDS011;27863;49.440;11.102;2023-04-09T07:43:47;10.57;;;9.85;;
42194;SDS011;27863;49.440;11.102;2023-04-09T07:46:48;10.80;;;10.00;;
42194;SDS011;27863;49.440;11.102;2023-04-09T07:49:48;10.55;;;9.57;;
42194;SDS011;27863;49.440;11.102;2023-04-09T07:52:49;10.05;;;9.35;;
42194;SDS011;27863;49.440;11.102;2023-04-09T07:55:50;10.68;;;9.82;;
42194;SDS011;27863;49.440;11.102;2023-04-09T07:58:51;10.40;;;9.70;;
42194;SDS011;27863;49.440;11.102;2023-04-09T08:01:51;10.13;;;9.43;;
42194;SDS011;27863;49.440;11.102;2023-04-09T08:04:52;10.75;;;9.95;;
42194;SDS011;27863;49.440;11.102;2023-04-09T08:07:54;10.20;;;9.50;;
42194;SDS011;27863;49.440;11.102;2023-04-09T08:10:55;10.82;;;10.02;;
42194;SDS011;27863;49.440;11.102;2023-04-09T08:13:56;10.60;;;9.80;;
42194;SDS011;27863;49.440;11.102;2023-04-09T08:16:56;10.55;;;9.85;;
42194;SDS011;27863;49.440;11.102;2023-04-09T08:19:59;9.75;;;9.05;;
42194;SDS011;27863;49.440;11.102;2023-04-09T08:23:00;9.98;;;9.27;;
42194;SDS011;27863;49.440;11.102;2023-04-09T08:26:02;10.45;;;9.73;;
42194;SDS011;27863;49.440;11.102;2023-04-09T08:29:03;10.77;;;9.98;;
42194;SDS011;27863;49.440;11.102;2023-04-09T08:32:03;10.75;;;9.95;;
42194;SDS011;27863;49.440;11.102;2023-04-09T08:35:07;11.40;;;10.52;;
42194;SDS011;27863;49.440;11.102;2023-04-09T08:38:40;10.88;;;10.18;;
42194;SDS011;27863;49.440;11.102;2023-04-09T08:41:41;10.23;;;9.52;;
42194;SDS011;27863;49.440;11.102;2023-04-09T08:44:47;10.05;;;9.35;;
42194;SDS011;27863;49.440;11.102;2023-04-09T08:47:48;11.30;;;10.50;;
42194;SDS011;27863;49.440;11.102;2023-04-09T08:50:52;10.13;;;9.43;;
42194;SDS011;27863;49.440;11.102;2023-04-09T08:53:56;10.40;;;9.65;;
42194;SDS011;27863;49.440;11.102;2023-04-09T08:56:57;10.20;;;9.50;;
42194;SDS011;27863;49.440;11.102;2023-04-09T08:59:58;10.68;;;9.88;;
42194;SDS011;27863;49.440;11.102;2023-04-09T09:03:05;11.23;;;10.43;;
42194;SDS011;27863;49.440;11.102;2023-04-09T09:06:09;11.60;;;10.70;;
42194;SDS011;27863;49.440;11.102;2023-04-09T09:09:20;10.13;;;9.32;;
42194;SDS011;27863;49.440;11.102;2023-04-09T09:12:31;10.77;;;9.98;;
42194;SDS011;27863;49.440;11.102;2023-04-09T09:15:34;10.23;;;9.43;;
42194;SDS011;27863;49.440;11.102;2023-04-09T09:18:36;10.55;;;9.60;;
42194;SDS011;27863;49.440;11.102;2023-04-09T09:21:38;10.57;;;9.73;;
42194;SDS011;27863;49.440;11.102;2023-04-09T09:24:46;10.25;;;9.45;;
42194;SDS011;27863;49.440;11.102;2023-04-09T09:27:51;10.25;;;9.35;;
42194;SDS011;27863;49.440;11.102;2023-04-09T09:31:00;10.77;;;9.88;;
42194;SDS011;27863;49.440;11.102;2023-04-09T09:34:07;11.18;;;10.25;;
42194;SDS011;27863;49.440;11.102;2023-04-09T09:37:26;9.98;;;9.05;;
42194;SDS011;27863;49.440;11.102;2023-04-09T09:40:28;10.00;;;9.18;;
42194;SDS011;27863;49.440;11.102;2023-04-09T09:43:39;10.05;;;9.20;;
42194;SDS011;27863;49.440;11.102;2023-04-09T09:46:41;9.63;;;8.85;;
42194;SDS011;27863;49.440;11.102;2023-04-09T09:49:41;10.10;;;9.20;;
42194;SDS011;27863;49.440;11.102;2023-04-09T09:52:43;10.30;;;9.40;;
42194;SDS011;27863;49.440;11.102;2023-04-09T09:55:46;9.32;;;8.52;;
42194;SDS011;27863;49.440;11.102;2023-04-09T09:58:51;10.55;;;9.55;;
42194;SDS011;27863;49.440;11.102;2023-04-09T10:02:03;10.35;;;9.45;;
42194;SDS011;27863;49.440;11.102;2023-04-09T10:05:05;11.13;;;10.02;;
42194;SDS011;27863;49.440;11.102;2023-04-09T10:08:07;10.43;;;9.52;;
42194;SDS011;27863;49.440;11.102;2023-04-09T10:11:08;9.73;;;8.93;;
42194;SDS011;27863;49.440;11.102;2023-04-09T10:14:09;8.65;;;7.95;;
42194;SDS011;27863;49.440;11.102;2023-04-09T10:17:10;8.90;;;8.20;;
42194;SDS011;27863;49.440;11.102;2023-04-09T10:20:22;8.65;;;7.95;;
42194;SDS011;27863;49.440;11.102;2023-04-09T10:23:37;9.63;;;8.82;;
42194;SDS011;27863;49.440;11.102;2023-04-09T10:26:42;9.35;;;8.55;;
42194;SDS011;27863;49.440;11.102;2023-04-09T10:29:46;8.93;;;8.13;;
42194;SDS011;27863;49.440;11.102;2023-04-09T10:32:48;9.05;;;8.25;;
42194;SDS011;27863;49.440;11.102;2023-04-09T10:35:48;7.10;;;6.50;;
42194;SDS011;27863;49.440;11.102;2023-04-09T10:38:49;7.45;;;6.75;;
42194;SDS011;27863;49.440;11.102;2023-04-09T10:41:50;7.60;;;6.97;;
42194;SDS011;27863;49.440;11.102;2023-04-09T10:45:10;6.60;;;6.10;;
42194;SDS011;27863;49.440;11.102;2023-04-09T10:48:13;7.65;;;7.05;;
42194;SDS011;27863;49.440;11.102;2023-04-09T10:51:19;6.85;;;6.28;;
42194;SDS011;27863;49.440;11.102;2023-04-09T10:57:33;6.47;;;5.97;;
42194;SDS011;27863;49.440;11.102;2023-04-09T11:00:37;6.65;;;6.05;;
42194;SDS011;27863;49.440;11.102;2023-04-09T11:03:41;5.90;;;5.43;;
42194;SDS011;27863;49.440;11.102;2023-04-09T11:06:44;6.32;;;5.80;;
42194;SDS011;27863;49.440;11.102;2023-04-09T11:09:46;5.55;;;5.13;;
42194;SDS011;27863;49.440;11.102;2023-04-09T11:12:47;5.43;;;4.97;;
42194;SDS011;27863;49.440;11.102;2023-04-09T11:15:47;5.13;;;4.70;;
42194;SDS011;27863;49.440;11.102;2023-04-09T11:18:49;5.32;;;4.93;;
42194;SDS011;27863;49.440;11.102;2023-04-09T11:21:53;5.13;;;4.72;;
42194;SDS011;27863;49.440;11.102;2023-04-09T11:24:53;5.05;;;4.65;;
42194;SDS011;27863;49.440;11.102;2023-04-09T11:27:54;5.22;;;4.68;;
42194;SDS011;27863;49.440;11.102;2023-04-09T11:30:54;5.35;;;4.95;;
42194;SDS011;27863;49.440;11.102;2023-04-09T11:33:55;5.68;;;5.28;;
42194;SDS011;27863;49.440;11.102;2023-04-09T11:36:56;5.32;;;4.82;;
42194;SDS011;27863;49.440;11.102;2023-04-09T11:39:58;5.70;;;5.20;;
42194;SDS011;27863;49.440;11.102;2023-04-09T11:42:59;5.53;;;5.03;;
42194;SDS011;27863;49.440;11.102;2023-04-09T11:46:00;5.30;;;4.80;;
42194;SDS011;27863;49.440;11.102;2023-04-09T11:49:02;5.45;;;5.05;;
42194;SDS011;27863;49.440;11.102;2023-04-09T11:52:03;5.80;;;5.30;;
42194;SDS011;27863;49.440;11.102;2023-04-09T11:55:04;6.18;;;5.68;;
42194;SDS011;27863;49.440;11.102;2023-04-09T11:58:05;5.35;;;4.95;;
42194;SDS011;27863;49.440;11.102;2023-04-09T12:01:10;5.47;;;5.07;;
42194;SDS011;27863;49.440;11.102;2023-04-09T12:04:17;5.30;;;4.80;;
42194;SDS011;27863;49.440;11.102;2023-04-09T12:07:21;5.68;;;5.28;;
42194;SDS011;27863;49.440;11.102;2023-04-09T12:10:25;5.90;;;5.40;;
42194;SDS011;27863;49.440;11.102;2023-04-09T12:13:31;5.43;;;4.93;;
42194;SDS011;27863;49.440;11.102;2023-04-09T12:16:33;4.70;;;4.38;;
42194;SDS011;27863;49.440;11.102;2023-04-09T12:19:35;4.78;;;4.38;;
42194;SDS011;27863;49.440;11.102;2023-04-09T12:22:35;5.20;;;4.80;;
42194;SDS011;27863;49.440;11.102;2023-04-09T12:25:40;4.82;;;4.43;;
42194;SDS011;27863;49.440;11.102;2023-04-09T12:28:42;4.80;;;4.40;;
42194;SDS011;27863;49.440;11.102;2023-04-09T12:31:42;5.43;;;4.93;;
42194;SDS011;27863;49.440;11.102;2023-04-09T12:34:43;5.13;;;4.72;;
42194;SDS011;27863;49.440;11.102;2023-04-09T12:37:46;4.95;;;4.55;;
42194;SDS011;27863;49.440;11.102;2023-04-09T12:40:47;4.88;;;4.47;;
42194;SDS011;27863;49.440;11.102;2023-04-09T12:43:47;5.00;;;4.60;;
42194;SDS011;27863;49.440;11.102;2023-04-09T12:46:48;5.13;;;4.72;;
42194;SDS011;27863;49.440;11.102;2023-04-09T12:49:48;4.97;;;4.57;;
42194;SDS011;27863;49.440;11.102;2023-04-09T12:52:49;4.18;;;3.88;;
42194;SDS011;27863;49.440;11.102;2023-04-09T12:55:50;4.88;;;4.47;;
42194;SDS011;27863;49.440;11.102;2023-04-09T12:58:50;5.45;;;5.05;;
42194;SDS011;27863;49.440;11.102;2023-04-09T13:01:54;5.10;;;4.60;;
42194;SDS011;27863;49.440;11.102;2023-04-09T13:04:55;5.03;;;4.63;;
42194;SDS011;27863;49.440;11.102;2023-04-09T13:07:56;4.80;;;4.40;;
42194;SDS011;27863;49.440;11.102;2023-04-09T13:10:57;4.75;;;4.35;;
42194;SDS011;27863;49.440;11.102;2023-04-09T13:13:57;5.80;;;5.30;;
42194;SDS011;27863;49.440;11.102;2023-04-09T13:16:58;4.93;;;4.53;;
42194;SDS011;27863;49.440;11.102;2023-04-09T13:19:58;5.15;;;4.75;;
42194;SDS011;27863;49.440;11.102;2023-04-09T13:22:59;5.60;;;5.07;;
42194;SDS011;27863;49.440;11.102;2023-04-09T13:25:59;5.45;;;5.05;;
42194;SDS011;27863;49.440;11.102;2023-04-09T13:29:01;5.07;;;4.67;;
42194;SDS011;27863;49.440;11.102;2023-04-09T13:32:02;5.70;;;5.20;;
42194;SDS011;27863;49.440;11.102;2023-04-09T13:35:06;4.97;;;4.53;;
42194;SDS011;27863;49.440;11.102;2023-04-09T13:38:10;4.95;;;4.55;;
42194;SDS011;27863;49.440;11.102;2023-04-09T13:41:10;4.50;;;4.20;;
42194;SDS011;27863;49.440;11.102;2023-04-09T13:44:11;5.47;;;4.97;;
42194;SDS011;27863;49.440;11.102;2023-04-09T13:47:12;5.03;;;4.63;;
42194;SDS011;27863;49.440;11.102;2023-04-09T13:50:13;4.88;;;4.47;;
42194;SDS011;27863;49.440;11.102;2023-04-09T13:53:13;5.25;;;4.85;;
42194;SDS011;27863;49.440;11.102;2023-04-09T13:56:15;5.13;;;4.72;;
42194;SDS011;27863;49.440;11.102;2023-04-09T13:59:16;5.95;;;5.45;;
42194;SDS011;27863;49.440;11.102;2023-04-09T14:02:17;6.45;;;5.85;;
42194;SDS011;27863;49.440;11.102;2023-04-09T14:05:19;7.10;;;5.40;;
42194;SDS011;27863;49.440;11.102;2023-04-09T14:08:19;5.90;;;5.40;;
42194;SDS011;27863;49.440;11.102;2023-04-09T14:11:21;6.18;;;5.55;;
42194;SDS011;27863;49.440;11.102;2023-04-09T14:14:22;6.47;;;5.88;;
42194;SDS011;27863;49.440;11.102;2023-04-09T14:17:24;5.60;;;5.13;;
42194;SDS011;27863;49.440;11.102;2023-04-09T14:20:25;5.68;;;5.18;;
42194;SDS011;27863;49.440;11.102;2023-04-09T14:23:25;5.43;;;4.93;;
42194;SDS011;27863;49.440;11.102;2023-04-09T14:26:27;7.85;;;5.35;;
42194;SDS011;27863;49.440;11.102;2023-04-09T14:29:28;5.38;;;4.95;;
42194;SDS011;27863;49.440;11.102;2023-04-09T14:32:31;5.07;;;4.65;;
42194;SDS011;27863;49.440;11.102;2023-04-09T14:35:33;5.35;;;4.90;;
42194;SDS011;27863;49.440;11.102;2023-04-09T14:38:33;5.70;;;5.20;;
42194;SDS011;27863;49.440;11.102;2023-04-09T14:41:35;4.80;;;4.40;;
42194;SDS011;27863;49.440;11.102;2023-04-09T14:44:36;4.93;;;4.53;;
42194;SDS011;27863;49.440;11.102;2023-04-09T14:47:36;5.43;;;4.93;;
42194;SDS011;27863;49.440;11.102;2023-04-09T14:50:37;4.45;;;4.05;;
42194;SDS011;27863;49.440;11.102;2023-04-09T14:53:38;5.05;;;4.55;;
42194;SDS011;27863;49.440;11.102;2023-04-09T14:56:39;5.05;;;4.65;;
42194;SDS011;27863;49.440;11.102;2023-04-09T14:59:39;5.53;;;5.13;;
42194;SDS011;27863;49.440;11.102;2023-04-09T15:02:41;5.55;;;5.07;;
42194;SDS011;27863;49.440;11.102;2023-04-09T15:05:42;5.45;;;4.95;;
42194;SDS011;27863;49.440;11.102;2023-04-09T15:08:44;4.90;;;4.50;;
42194;SDS011;27863;49.440;11.102;2023-04-09T15:11:44;6.03;;;5.53;;
42194;SDS011;27863;49.440;11.102;2023-04-09T15:14:45;5.07;;;4.68;;
42194;SDS011;27863;49.440;11.102;2023-04-09T15:17:45;5.72;;;5.22;;
42194;SDS011;27863;49.440;11.102;2023-04-09T15:20:47;5.47;;;5.07;;
42194;SDS011;27863;49.440;11.102;2023-04-09T15:23:51;4.90;;;4.43;;
42194;SDS011;27863;49.440;11.102;2023-04-09T15:26:51;5.00;;;4.60;;
42194;SDS011;27863;49.440;11.102;2023-04-09T15:29:52;4.63;;;4.22;;
42194;SDS011;27863;49.440;11.102;2023-04-09T15:32:53;4.73;;;4.33;;
42194;SDS011;27863;49.440;11.102;2023-04-09T15:35:53;4.68;;;4.28;;
42194;SDS011;27863;49.440;11.102;2023-04-09T15:38:55;4.82;;;4.43;;
42194;SDS011;27863;49.440;11.102;2023-04-09T15:41:56;4.43;;;4.03;;
42194;SDS011;27863;49.440;11.102;2023-04-09T15:44:56;4.68;;;4.30;;
42194;SDS011;27863;49.440;11.102;2023-04-09T15:47:57;5.55;;;4.65;;
42194;SDS011;27863;49.440;11.102;2023-04-09T15:50:57;4.78;;;4.38;;
42194;SDS011;27863;49.440;11.102;2023-04-09T15:53:58;4.75;;;4.35;;
42194;SDS011;27863;49.440;11.102;2023-04-09T15:56:59;5.07;;;4.68;;
42194;SDS011;27863;49.440;11.102;2023-04-09T15:59:59;5.10;;;4.70;;
42194;SDS011;27863;49.440;11.102;2023-04-09T16:03:00;5.57;;;5.13;;
42194;SDS011;27863;49.440;11.102;2023-04-09T16:06:02;4.75;;;4.35;;
42194;SDS011;27863;49.440;11.102;2023-04-09T16:09:06;4.40;;;4.00;;
42194;SDS011;27863;49.440;11.102;2023-04-09T16:12:07;4.45;;;4.05;;
42194;SDS011;27863;49.440;11.102;2023-04-09T16:15:07;5.40;;;4.93;;
42194;SDS011;27863;49.440;11.102;2023-04-09T16:18:08;5.45;;;5.05;;
42194;SDS011;27863;49.440;11.102;2023-04-09T16:21:10;5.75;;;5.35;;
42194;SDS011;27863;49.440;11.102;2023-04-09T16:24:11;5.18;;;4.68;;
42194;SDS011;27863;49.440;11.102;2023-04-09T16:27:12;5.50;;;5.00;;
42194;SDS011;27863;49.440;11.102;2023-04-09T16:30:13;5.90;;;5.40;;
42194;SDS011;27863;49.440;11.102;2023-04-09T16:33:14;5.30;;;4.80;;
42194;SDS011;27863;49.440;11.102;2023-04-09T16:36:15;5.33;;;4.83;;
42194;SDS011;27863;49.440;11.102;2023-04-09T16:39:19;6.28;;;5.72;;
42194;SDS011;27863;49.440;11.102;2023-04-09T16:42:19;4.97;;;4.57;;
42194;SDS011;27863;49.440;11.102;2023-04-09T16:45:20;5.20;;;4.80;;
42194;SDS011;27863;49.440;11.102;2023-04-09T16:48:21;5.20;;;4.77;;
42194;SDS011;27863;49.440;11.102;2023-04-09T16:51:21;5.63;;;5.13;;
42194;SDS011;27863;49.440;11.102;2023-04-09T16:54:23;4.90;;;4.50;;
42194;SDS011;27863;49.440;11.102;2023-04-09T16:57:24;5.57;;;5.17;;
42194;SDS011;27863;49.440;11.102;2023-04-09T17:00:24;5.67;;;5.17;;
42194;SDS011;27863;49.440;11.102;2023-04-09T17:03:26;5.03;;;4.43;;
42194;SDS011;27863;49.440;11.102;2023-04-09T17:06:27;6.30;;;5.80;;
42194;SDS011;27863;49.440;11.102;2023-04-09T17:09:27;5.47;;;5.00;;
42194;SDS011;27863;49.440;11.102;2023-04-09T17:12:29;5.07;;;4.60;;
42194;SDS011;27863;49.440;11.102;2023-04-09T17:15:30;5.23;;;4.80;;
42194;SDS011;27863;49.440;11.102;2023-04-09T17:18:30;5.13;;;4.63;;
42194;SDS011;27863;49.440;11.102;2023-04-09T17:21:31;5.17;;;4.73;;
42194;SDS011;27863;49.440;11.102;2023-04-09T17:24:31;5.60;;;5.10;;
42194;SDS011;27863;49.440;11.102;2023-04-09T17:27:35;5.20;;;4.70;;
42194;SDS011;27863;49.440;11.102;2023-04-09T17:30:36;6.27;;;5.67;;
42194;SDS011;27863;49.440;11.102;2023-04-09T17:33:37;5.30;;;4.90;;
42194;SDS011;27863;49.440;11.102;2023-04-09T17:36:39;6.20;;;4.97;;
42194;SDS011;27863;49.440;11.102;2023-04-09T17:39:40;5.50;;;5.10;;
42194;SDS011;27863;49.440;11.102;2023-04-09T17:42:40;5.57;;;5.07;;
42194;SDS011;27863;49.440;11.102;2023-04-09T17:45:41;6.37;;;5.77;;
42194;SDS011;27863;49.440;11.102;2023-04-09T17:48:41;6.17;;;5.57;;
42194;SDS011;27863;49.440;11.102;2023-04-09T17:51:42;7.37;;;6.33;;
42194;SDS011;27863;49.440;11.102;2023-04-09T17:54:43;7.00;;;6.43;;
42194;SDS011;27863;49.440;11.102;2023-04-09T17:57:44;6.80;;;6.20;;
42194;SDS011;27863;49.440;11.102;2023-04-09T18:00:44;6.33;;;5.83;;
42194;SDS011;27863;49.440;11.102;2023-04-09T18:03:45;6.93;;;6.30;;
42194;SDS011;27863;49.440;11.102;2023-04-09T18:06:47;7.50;;;6.50;;
42194;SDS011;27863;49.440;11.102;2023-04-09T18:09:48;9.63;;;7.17;;
42194;SDS011;27863;49.440;11.102;2023-04-09T18:12:48;7.60;;;6.90;;
42194;SDS011;27863;49.440;11.102;2023-04-09T18:15:49;11.03;;;9.87;;